sensor_id;sensor_type;location;lat;lon;timestamp;temperature;humidity
27506;DHT22;14939;43.596;1.320;2023-08-01T00:01:49;19.70;91.40
27506;DHT22;14939;43.596;1.320;2023-08-01T00:04:15;19.70;91.90
27506;DHT22;14939;43.596;1.320;2023-08-01T00:06:41;19.60;92.30
27506;DHT22;14939;43.596;1.320;2023-08-01T00:09:07;19.60;92.80
27506;DHT22;14939;43.596;1.320;2023-08-01T00:11:32;19.50;93.30
27506;DHT22;14939;43.596;1.320;2023-08-01T00:13:58;19.40;94.10
27506;DHT22;14939;43.596;1.320;2023-08-01T00:16:24;19.40;94.70
27506;DHT22;14939;43.596;1.320;2023-08-01T00:18:49;19.30;95.50
27506;DHT22;14939;43.596;1.320;2023-08-01T00:21:15;19.20;96.10
27506;DHT22;14939;43.596;1.320;2023-08-01T00:23:40;19.20;96.70
27506;DHT22;14939;43.596;1.320;2023-08-01T00:26:06;19.10;97.20
27506;DHT22;14939;43.596;1.320;2023-08-01T00:28:31;19.10;97.70
27506;DHT22;14939;43.596;1.320;2023-08-01T00:31:07;19.00;98.10
27506;DHT22;14939;43.596;1.320;2023-08-01T00:33:34;19.00;99.00
27506;DHT22;14939;43.596;1.320;2023-08-01T00:35:59;19.00;99.90
27506;DHT22;14939;43.596;1.320;2023-08-01T00:38:25;18.90;99.90
27506;DHT22;14939;43.596;1.320;2023-08-01T00:40:51;18.80;99.90
27506;DHT22;14939;43.596;1.320;2023-08-01T00:43:16;18.80;99.90
27506;DHT22;14939;43.596;1.320;2023-08-01T00:45:42;18.80;99.90
27506;DHT22;14939;43.596;1.320;2023-08-01T00:48:07;18.70;99.90
27506;DHT22;14939;43.596;1.320;2023-08-01T00:50:33;18.70;99.90
27506;DHT22;14939;43.596;1.320;2023-08-01T00:52:59;18.60;99.90
27506;DHT22;14939;43.596;1.320;2023-08-01T00:55:26;18.60;99.90
27506;DHT22;14939;43.596;1.320;2023-08-01T00:57:52;18.60;99.90
27506;DHT22;14939;43.596;1.320;2023-08-01T01:00:18;18.50;99.90
27506;DHT22;14939;43.596;1.320;2023-08-01T01:02:44;18.50;99.90
27506;DHT22;14939;43.596;1.320;2023-08-01T01:05:09;18.50;99.90
27506;DHT22;14939;43.596;1.320;2023-08-01T01:07:35;18.50;99.90
27506;DHT22;14939;43.596;1.320;2023-08-01T01:10:02;18.40;99.90
27506;DHT22;14939;43.596;1.320;2023-08-01T01:12:27;18.40;99.90
27506;DHT22;14939;43.596;1.320;2023-08-01T01:14:53;18.40;99.90
27506;DHT22;14939;43.596;1.320;2023-08-01T01:17:18;18.40;99.90
27506;DHT22;14939;43.596;1.320;2023-08-01T01:19:44;18.30;99.90
27506;DHT22;14939;43.596;1.320;2023-08-01T01:22:10;18.30;99.90
27506;DHT22;14939;43.596;1.320;2023-08-01T01:24:36;18.30;99.90
27506;DHT22;14939;43.596;1.320;2023-08-01T01:27:03;18.30;99.90
27506;DHT22;14939;43.596;1.320;2023-08-01T01:29:29;18.30;99.90
27506;DHT22;14939;43.596;1.320;2023-08-01T01:31:55;18.30;99.90
27506;DHT22;14939;43.596;1.320;2023-08-01T01:34:21;18.30;99.90
27506;DHT22;14939;43.596;1.320;2023-08-01T01:36:47;18.30;99.90
27506;DHT22;14939;43.596;1.320;2023-08-01T01:39:12;18.20;99.90
27506;DHT22;14939;43.596;1.320;2023-08-01T01:41:41;18.20;99.90
27506;DHT22;14939;43.596;1.320;2023-08-01T01:44:06;18.20;99.90
27506;DHT22;14939;43.596;1.320;2023-08-01T01:46:32;18.30;99.90
27506;DHT22;14939;43.596;1.320;2023-08-01T01:48:57;18.40;99.90
27506;DHT22;14939;43.596;1.320;2023-08-01T01:51:25;18.50;99.90
27506;DHT22;14939;43.596;1.320;2023-08-01T01:53:51;18.50;99.90
27506;DHT22;14939;43.596;1.320;2023-08-01T01:56:16;18.60;99.90
27506;DHT22;14939;43.596;1.320;2023-08-01T01:58:42;18.60;99.90
27506;DHT22;14939;43.596;1.320;2023-08-01T02:01:07;18.70;99.90
27506;DHT22;14939;43.596;1.320;2023-08-01T02:03:33;18.70;99.90
27506;DHT22;14939;43.596;1.320;2023-08-01T02:05:58;18.70;99.90
27506;DHT22;14939;43.596;1.320;2023-08-01T02:08:24;18.80;99.90
27506;DHT22;14939;43.596;1.320;2023-08-01T02:10:49;18.80;99.90
27506;DHT22;14939;43.596;1.320;2023-08-01T02:13:16;18.80;99.90
27506;DHT22;14939;43.596;1.320;2023-08-01T02:15:41;18.80;99.90
27506;DHT22;14939;43.596;1.320;2023-08-01T02:18:07;18.80;99.90
27506;DHT22;14939;43.596;1.320;2023-08-01T02:20:32;18.90;99.90
27506;DHT22;14939;43.596;1.320;2023-08-01T02:22:58;19.00;99.90
27506;DHT22;14939;43.596;1.320;2023-08-01T02:25:23;19.00;99.90
27506;DHT22;14939;43.596;1.320;2023-08-01T02:27:49;19.00;99.90
27506;DHT22;14939;43.596;1.320;2023-08-01T02:30:15;19.00;99.90
27506;DHT22;14939;43.596;1.320;2023-08-01T02:32:40;19.00;99.90
27506;DHT22;14939;43.596;1.320;2023-08-01T02:35:07;19.00;99.90
27506;DHT22;14939;43.596;1.320;2023-08-01T02:37:33;19.00;99.90
27506;DHT22;14939;43.596;1.320;2023-08-01T02:39:58;19.00;99.90
27506;DHT22;14939;43.596;1.320;2023-08-01T02:42:24;19.10;99.90
27506;DHT22;14939;43.596;1.320;2023-08-01T02:44:49;19.00;99.90
27506;DHT22;14939;43.596;1.320;2023-08-01T02:47:15;19.00;99.90
27506;DHT22;14939;43.596;1.320;2023-08-01T02:49:40;19.10;99.90
27506;DHT22;14939;43.596;1.320;2023-08-01T02:52:06;19.10;99.90
27506;DHT22;14939;43.596;1.320;2023-08-01T02:54:32;19.10;99.90
27506;DHT22;14939;43.596;1.320;2023-08-01T02:56:57;19.10;99.90
27506;DHT22;14939;43.596;1.320;2023-08-01T02:59:23;19.00;99.90
27506;DHT22;14939;43.596;1.320;2023-08-01T03:01:49;19.10;99.90
27506;DHT22;14939;43.596;1.320;2023-08-01T03:04:15;19.10;99.90
27506;DHT22;14939;43.596;1.320;2023-08-01T03:06:40;19.00;99.90
27506;DHT22;14939;43.596;1.320;2023-08-01T03:09:06;18.90;99.90
27506;DHT22;14939;43.596;1.320;2023-08-01T03:11:33;19.00;99.90
27506;DHT22;14939;43.596;1.320;2023-08-01T03:14:00;19.10;99.90
27506;DHT22;14939;43.596;1.320;2023-08-01T03:16:26;19.10;99.90
27506;DHT22;14939;43.596;1.320;2023-08-01T03:18:51;19.10;99.90
27506;DHT22;14939;43.596;1.320;2023-08-01T03:21:17;19.10;99.90
27506;DHT22;14939;43.596;1.320;2023-08-01T03:23:42;19.10;99.90
27506;DHT22;14939;43.596;1.320;2023-08-01T03:26:08;19.10;99.90
27506;DHT22;14939;43.596;1.320;2023-08-01T03:28:34;19.10;99.90
27506;DHT22;14939;43.596;1.320;2023-08-01T03:30:59;19.10;99.90
27506;DHT22;14939;43.596;1.320;2023-08-01T03:33:25;19.00;99.90
27506;DHT22;14939;43.596;1.320;2023-08-01T03:35:50;19.00;99.90
27506;DHT22;14939;43.596;1.320;2023-08-01T03:38:16;19.00;99.90
27506;DHT22;14939;43.596;1.320;2023-08-01T03:40:41;19.00;99.90
27506;DHT22;14939;43.596;1.320;2023-08-01T03:43:07;18.90;99.90
27506;DHT22;14939;43.596;1.320;2023-08-01T03:45:34;18.90;99.90
27506;DHT22;14939;43.596;1.320;2023-08-01T03:48:00;19.00;99.90
27506;DHT22;14939;43.596;1.320;2023-08-01T03:50:26;19.00;99.90
27506;DHT22;14939;43.596;1.320;2023-08-01T03:52:52;19.00;99.90
27506;DHT22;14939;43.596;1.320;2023-08-01T03:55:17;19.00;99.90
27506;DHT22;14939;43.596;1.320;2023-08-01T03:57:43;19.00;99.90
27506;DHT22;14939;43.596;1.320;2023-08-01T04:00:09;19.00;99.90
27506;DHT22;14939;43.596;1.320;2023-08-01T04:02:42;18.90;99.90
27506;DHT22;14939;43.596;1.320;2023-08-01T04:05:08;19.00;99.90
27506;DHT22;14939;43.596;1.320;2023-08-01T04:07:37;19.00;99.90
27506;DHT22;14939;43.596;1.320;2023-08-01T04:10:03;18.90;99.90
27506;DHT22;14939;43.596;1.320;2023-08-01T04:12:29;19.00;99.90
27506;DHT22;14939;43.596;1.320;2023-08-01T04:14:55;18.90;99.90
27506;DHT22;14939;43.596;1.320;2023-08-01T04:17:20;18.90;99.90
27506;DHT22;14939;43.596;1.320;2023-08-01T04:19:46;18.90;99.90
27506;DHT22;14939;43.596;1.320;2023-08-01T04:22:11;19.00;99.90
27506;DHT22;14939;43.596;1.320;2023-08-01T04:24:37;19.00;99.90
27506;DHT22;14939;43.596;1.320;2023-08-01T04:27:03;19.00;99.90
27506;DHT22;14939;43.596;1.320;2023-08-01T04:29:28;19.00;99.90
27506;DHT22;14939;43.596;1.320;2023-08-01T04:31:54;19.00;99.90
27506;DHT22;14939;43.596;1.320;2023-08-01T04:34:19;18.90;99.90
27506;DHT22;14939;43.596;1.320;2023-08-01T04:36:45;18.80;99.90
27506;DHT22;14939;43.596;1.320;2023-08-01T04:39:10;18.80;99.90
27506;DHT22;14939;43.596;1.320;2023-08-01T04:41:36;18.50;99.90
27506;DHT22;14939;43.596;1.320;2023-08-01T04:44:02;18.40;99.90
27506;DHT22;14939;43.596;1.320;2023-08-01T04:46:27;18.40;99.90
27506;DHT22;14939;43.596;1.320;2023-08-01T04:48:53;18.40;99.90
27506;DHT22;14939;43.596;1.320;2023-08-01T04:51:18;18.30;99.90
27506;DHT22;14939;43.596;1.320;2023-08-01T04:53:44;18.30;99.90
27506;DHT22;14939;43.596;1.320;2023-08-01T04:56:09;18.20;99.90
27506;DHT22;14939;43.596;1.320;2023-08-01T04:58:35;18.20;99.90
27506;DHT22;14939;43.596;1.320;2023-08-01T05:01:00;18.20;99.90
27506;DHT22;14939;43.596;1.320;2023-08-01T05:03:26;18.20;99.90
27506;DHT22;14939;43.596;1.320;2023-08-01T05:05:51;18.20;99.90
27506;DHT22;14939;43.596;1.320;2023-08-01T05:08:17;18.20;99.90
27506;DHT22;14939;43.596;1.320;2023-08-01T05:10:42;18.20;99.90
27506;DHT22;14939;43.596;1.320;2023-08-01T05:13:08;18.20;99.90
27506;DHT22;14939;43.596;1.320;2023-08-01T05:15:33;18.20;99.90
27506;DHT22;14939;43.596;1.320;2023-08-01T05:17:59;18.20;99.90
27506;DHT22;14939;43.596;1.320;2023-08-01T05:20:24;18.30;99.90
27506;DHT22;14939;43.596;1.320;2023-08-01T05:22:58;18.20;99.90
27506;DHT22;14939;43.596;1.320;2023-08-01T05:25:24;18.20;99.90
27506;DHT22;14939;43.596;1.320;2023-08-01T05:27:50;18.20;99.90
27506;DHT22;14939;43.596;1.320;2023-08-01T05:30:15;18.30;99.90
27506;DHT22;14939;43.596;1.320;2023-08-01T05:32:41;18.30;99.90
27506;DHT22;14939;43.596;1.320;2023-08-01T05:35:09;18.30;99.90
27506;DHT22;14939;43.596;1.320;2023-08-01T05:37:34;18.30;99.90
27506;DHT22;14939;43.596;1.320;2023-08-01T05:40:01;18.40;99.90
27506;DHT22;14939;43.596;1.320;2023-08-01T05:42:27;18.50;99.90
27506;DHT22;14939;43.596;1.320;2023-08-01T05:44:52;18.50;99.90
27506;DHT22;14939;43.596;1.320;2023-08-01T05:47:18;18.50;99.90
27506;DHT22;14939;43.596;1.320;2023-08-01T05:49:43;18.50;99.90
27506;DHT22;14939;43.596;1.320;2023-08-01T05:52:09;18.60;99.90
27506;DHT22;14939;43.596;1.320;2023-08-01T05:54:34;18.60;99.90
27506;DHT22;14939;43.596;1.320;2023-08-01T05:57:00;18.60;99.90
27506;DHT22;14939;43.596;1.320;2023-08-01T05:59:25;18.70;99.90
27506;DHT22;14939;43.596;1.320;2023-08-01T06:01:52;18.80;99.90
27506;DHT22;14939;43.596;1.320;2023-08-01T06:04:17;18.80;99.90
27506;DHT22;14939;43.596;1.320;2023-08-01T06:06:43;18.90;99.90
27506;DHT22;14939;43.596;1.320;2023-08-01T06:09:08;18.90;99.90
27506;DHT22;14939;43.596;1.320;2023-08-01T06:11:34;19.00;99.90
27506;DHT22;14939;43.596;1.320;2023-08-01T06:14:00;19.10;99.90
27506;DHT22;14939;43.596;1.320;2023-08-01T06:16:25;19.20;99.90
27506;DHT22;14939;43.596;1.320;2023-08-01T06:18:51;19.20;99.90
27506;DHT22;14939;43.596;1.320;2023-08-01T06:21:17;19.20;99.90
27506;DHT22;14939;43.596;1.320;2023-08-01T06:23:42;19.20;99.90
27506;DHT22;14939;43.596;1.320;2023-08-01T06:26:08;19.30;99.90
27506;DHT22;14939;43.596;1.320;2023-08-01T06:28:33;19.30;99.90
27506;DHT22;14939;43.596;1.320;2023-08-01T06:30:59;19.30;99.90
27506;DHT22;14939;43.596;1.320;2023-08-01T06:33:24;19.30;99.90
27506;DHT22;14939;43.596;1.320;2023-08-01T06:35:50;19.40;99.90
27506;DHT22;14939;43.596;1.320;2023-08-01T06:38:15;19.30;99.90
27506;DHT22;14939;43.596;1.320;2023-08-01T06:40:41;19.30;99.90
27506;DHT22;14939;43.596;1.320;2023-08-01T06:43:06;19.40;99.90
27506;DHT22;14939;43.596;1.320;2023-08-01T06:45:32;19.50;99.90
27506;DHT22;14939;43.596;1.320;2023-08-01T06:47:57;19.60;99.90
27506;DHT22;14939;43.596;1.320;2023-08-01T06:50:23;19.70;99.90
27506;DHT22;14939;43.596;1.320;2023-08-01T06:52:48;19.80;99.90
27506;DHT22;14939;43.596;1.320;2023-08-01T06:55:14;20.10;99.90
27506;DHT22;14939;43.596;1.320;2023-08-01T06:57:40;20.50;99.90
27506;DHT22;14939;43.596;1.320;2023-08-01T07:00:05;20.70;99.90
27506;DHT22;14939;43.596;1.320;2023-08-01T07:02:31;20.60;99.90
27506;DHT22;14939;43.596;1.320;2023-08-01T07:04:56;20.50;99.90
27506;DHT22;14939;43.596;1.320;2023-08-01T07:07:22;20.50;99.90
27506;DHT22;14939;43.596;1.320;2023-08-01T07:09:47;20.80;99.90
27506;DHT22;14939;43.596;1.320;2023-08-01T07:12:13;21.00;99.90
27506;DHT22;14939;43.596;1.320;2023-08-01T07:14:39;21.10;99.00
27506;DHT22;14939;43.596;1.320;2023-08-01T07:17:05;21.20;98.00
27506;DHT22;14939;43.596;1.320;2023-08-01T07:19:30;21.20;97.90
27506;DHT22;14939;43.596;1.320;2023-08-01T07:21:56;21.30;97.30
27506;DHT22;14939;43.596;1.320;2023-08-01T07:24:21;21.50;97.30
27506;DHT22;14939;43.596;1.320;2023-08-01T07:26:47;21.80;96.50
27506;DHT22;14939;43.596;1.320;2023-08-01T07:29:12;21.80;95.30
27506;DHT22;14939;43.596;1.320;2023-08-01T07:31:41;21.70;95.20
27506;DHT22;14939;43.596;1.320;2023-08-01T07:34:06;21.50;96.20
27506;DHT22;14939;43.596;1.320;2023-08-01T07:36:32;21.40;95.60
27506;DHT22;14939;43.596;1.320;2023-08-01T07:38:58;21.50;94.00
27506;DHT22;14939;43.596;1.320;2023-08-01T07:41:23;21.50;93.10
27506;DHT22;14939;43.596;1.320;2023-08-01T07:43:49;21.60;92.60
27506;DHT22;14939;43.596;1.320;2023-08-01T07:46:14;21.70;91.00
27506;DHT22;14939;43.596;1.320;2023-08-01T07:48:40;21.70;90.70
27506;DHT22;14939;43.596;1.320;2023-08-01T07:51:05;21.70;89.60
27506;DHT22;14939;43.596;1.320;2023-08-01T07:53:36;21.90;87.90
27506;DHT22;14939;43.596;1.320;2023-08-01T07:56:01;22.00;86.70
27506;DHT22;14939;43.596;1.320;2023-08-01T07:58:28;22.10;85.50
27506;DHT22;14939;43.596;1.320;2023-08-01T08:00:53;22.10;84.50
27506;DHT22;14939;43.596;1.320;2023-08-01T08:03:19;22.00;83.80
27506;DHT22;14939;43.596;1.320;2023-08-01T08:05:47;22.10;84.00
27506;DHT22;14939;43.596;1.320;2023-08-01T08:08:13;22.00;84.10
27506;DHT22;14939;43.596;1.320;2023-08-01T08:10:38;21.90;84.80
27506;DHT22;14939;43.596;1.320;2023-08-01T08:13:04;22.00;85.30
27506;DHT22;14939;43.596;1.320;2023-08-01T08:15:29;22.00;85.30
27506;DHT22;14939;43.596;1.320;2023-08-01T08:17:59;22.10;85.60
27506;DHT22;14939;43.596;1.320;2023-08-01T08:20:24;22.20;87.00
27506;DHT22;14939;43.596;1.320;2023-08-01T08:22:50;21.90;88.40
27506;DHT22;14939;43.596;1.320;2023-08-01T08:25:15;21.90;88.90
27506;DHT22;14939;43.596;1.320;2023-08-01T08:27:41;22.00;89.70
27506;DHT22;14939;43.596;1.320;2023-08-01T08:30:07;22.10;88.90
27506;DHT22;14939;43.596;1.320;2023-08-01T08:32:32;22.00;89.60
27506;DHT22;14939;43.596;1.320;2023-08-01T08:34:58;22.10;89.70
27506;DHT22;14939;43.596;1.320;2023-08-01T08:37:23;22.20;89.20
27506;DHT22;14939;43.596;1.320;2023-08-01T08:39:49;22.40;88.50
27506;DHT22;14939;43.596;1.320;2023-08-01T08:42:15;22.40;88.00
27506;DHT22;14939;43.596;1.320;2023-08-01T08:44:43;22.40;89.20
27506;DHT22;14939;43.596;1.320;2023-08-01T08:47:09;22.60;88.80
27506;DHT22;14939;43.596;1.320;2023-08-01T08:49:35;22.80;86.30
27506;DHT22;14939;43.596;1.320;2023-08-01T08:52:02;22.80;86.10
27506;DHT22;14939;43.596;1.320;2023-08-01T08:54:28;22.60;86.10
27506;DHT22;14939;43.596;1.320;2023-08-01T08:56:55;22.90;87.80
27506;DHT22;14939;43.596;1.320;2023-08-01T08:59:21;23.00;86.50
27506;DHT22;14939;43.596;1.320;2023-08-01T09:01:46;23.20;85.30
27506;DHT22;14939;43.596;1.320;2023-08-01T09:04:12;23.40;84.00
27506;DHT22;14939;43.596;1.320;2023-08-01T09:06:40;23.30;84.20
27506;DHT22;14939;43.596;1.320;2023-08-01T09:09:14;23.40;85.50
27506;DHT22;14939;43.596;1.320;2023-08-01T09:11:47;23.40;82.20
27506;DHT22;14939;43.596;1.320;2023-08-01T09:14:13;23.20;84.40
27506;DHT22;14939;43.596;1.320;2023-08-01T09:16:40;23.00;85.40
27506;DHT22;14939;43.596;1.320;2023-08-01T09:19:06;23.10;86.10
27506;DHT22;14939;43.596;1.320;2023-08-01T09:21:32;23.20;86.00
27506;DHT22;14939;43.596;1.320;2023-08-01T09:24:13;23.10;85.80
27506;DHT22;14939;43.596;1.320;2023-08-01T09:26:40;23.20;86.60
27506;DHT22;14939;43.596;1.320;2023-08-01T09:29:05;23.60;84.90
27506;DHT22;14939;43.596;1.320;2023-08-01T09:31:35;23.80;84.00
27506;DHT22;14939;43.596;1.320;2023-08-01T09:34:01;23.60;84.10
27506;DHT22;14939;43.596;1.320;2023-08-01T09:36:29;23.90;83.80
27506;DHT22;14939;43.596;1.320;2023-08-01T09:39:02;24.00;82.20
27506;DHT22;14939;43.596;1.320;2023-08-01T09:41:28;24.40;80.00
27506;DHT22;14939;43.596;1.320;2023-08-01T09:43:54;24.60;79.40
27506;DHT22;14939;43.596;1.320;2023-08-01T09:49:08;24.40;79.80
27506;DHT22;14939;43.596;1.320;2023-08-01T09:51:45;24.50;80.60
27506;DHT22;14939;43.596;1.320;2023-08-01T09:54:11;24.50;80.40
27506;DHT22;14939;43.596;1.320;2023-08-01T09:56:36;24.30;80.80
27506;DHT22;14939;43.596;1.320;2023-08-01T09:59:02;24.30;81.70
27506;DHT22;14939;43.596;1.320;2023-08-01T10:01:28;24.60;80.20
27506;DHT22;14939;43.596;1.320;2023-08-01T10:03:57;24.80;79.50
27506;DHT22;14939;43.596;1.320;2023-08-01T10:06:24;24.80;80.00
27506;DHT22;14939;43.596;1.320;2023-08-01T10:08:53;25.20;78.50
27506;DHT22;14939;43.596;1.320;2023-08-01T10:11:20;25.30;77.30
27506;DHT22;14939;43.596;1.320;2023-08-01T10:13:45;25.20;78.20
27506;DHT22;14939;43.596;1.320;2023-08-01T10:16:12;25.10;78.30
27506;DHT22;14939;43.596;1.320;2023-08-01T10:18:38;24.80;81.00
27506;DHT22;14939;43.596;1.320;2023-08-01T10:21:07;24.80;81.20
27506;DHT22;14939;43.596;1.320;2023-08-01T10:23:33;24.40;84.90
27506;DHT22;14939;43.596;1.320;2023-08-01T10:26:00;24.00;86.70
27506;DHT22;14939;43.596;1.320;2023-08-01T10:28:33;24.00;87.50
27506;DHT22;14939;43.596;1.320;2023-08-01T10:31:11;24.00;87.90
27506;DHT22;14939;43.596;1.320;2023-08-01T10:33:37;24.20;87.70
27506;DHT22;14939;43.596;1.320;2023-08-01T10:44:11;24.60;85.80
27506;DHT22;14939;43.596;1.320;2023-08-01T10:49:12;24.30;87.20
27506;DHT22;14939;43.596;1.320;2023-08-01T10:51:38;24.20;88.50
27506;DHT22;14939;43.596;1.320;2023-08-01T10:54:03;23.90;94.70
27506;DHT22;14939;43.596;1.320;2023-08-01T10:56:29;23.90;92.70
27506;DHT22;14939;43.596;1.320;2023-08-01T10:58:57;24.00;92.40
27506;DHT22;14939;43.596;1.320;2023-08-01T11:01:22;23.90;92.60
27506;DHT22;14939;43.596;1.320;2023-08-01T11:03:48;24.40;91.10
27506;DHT22;14939;43.596;1.320;2023-08-01T11:06:13;24.10;91.80
27506;DHT22;14939;43.596;1.320;2023-08-01T11:08:40;24.00;92.20
27506;DHT22;14939;43.596;1.320;2023-08-01T11:11:06;24.10;92.20
27506;DHT22;14939;43.596;1.320;2023-08-01T11:13:32;24.20;91.80
27506;DHT22;14939;43.596;1.320;2023-08-01T11:16:01;24.30;91.60
27506;DHT22;14939;43.596;1.320;2023-08-01T11:18:26;24.20;91.80
27506;DHT22;14939;43.596;1.320;2023-08-01T11:20:52;24.30;92.00
27506;DHT22;14939;43.596;1.320;2023-08-01T11:23:17;24.40;91.60
27506;DHT22;14939;43.596;1.320;2023-08-01T11:25:43;24.30;91.70
27506;DHT22;14939;43.596;1.320;2023-08-01T11:28:15;24.40;91.70
27506;DHT22;14939;43.596;1.320;2023-08-01T11:30:41;25.00;90.10
27506;DHT22;14939;43.596;1.320;2023-08-01T11:33:16;25.00;89.10
27506;DHT22;14939;43.596;1.320;2023-08-01T11:35:42;25.20;88.60
27506;DHT22;14939;43.596;1.320;2023-08-01T11:38:08;25.20;88.10
27506;DHT22;14939;43.596;1.320;2023-08-01T11:40:33;25.00;88.70
27506;DHT22;14939;43.596;1.320;2023-08-01T11:42:59;24.40;95.10
27506;DHT22;14939;43.596;1.320;2023-08-01T11:45:25;24.10;95.70
27506;DHT22;14939;43.596;1.320;2023-08-01T11:47:51;24.10;96.50
27506;DHT22;14939;43.596;1.320;2023-08-01T11:50:21;24.00;96.10
27506;DHT22;14939;43.596;1.320;2023-08-01T11:52:48;23.80;96.00
27506;DHT22;14939;43.596;1.320;2023-08-01T11:55:21;23.60;97.70
27506;DHT22;14939;43.596;1.320;2023-08-01T11:57:53;23.10;99.90
27506;DHT22;14939;43.596;1.320;2023-08-01T12:00:23;23.00;99.90
27506;DHT22;14939;43.596;1.320;2023-08-01T12:02:48;23.40;99.90
27506;DHT22;14939;43.596;1.320;2023-08-01T12:05:20;23.70;99.90
27506;DHT22;14939;43.596;1.320;2023-08-01T12:07:46;23.80;99.90
27506;DHT22;14939;43.596;1.320;2023-08-01T12:10:12;24.00;99.90
27506;DHT22;14939;43.596;1.320;2023-08-01T12:12:43;23.90;99.90
27506;DHT22;14939;43.596;1.320;2023-08-01T12:15:08;22.80;99.90
27506;DHT22;14939;43.596;1.320;2023-08-01T12:17:34;22.60;99.90
27506;DHT22;14939;43.596;1.320;2023-08-01T12:19:59;22.70;99.90
27506;DHT22;14939;43.596;1.320;2023-08-01T12:22:25;22.40;99.90
27506;DHT22;14939;43.596;1.320;2023-08-01T12:24:50;22.00;99.90
27506;DHT22;14939;43.596;1.320;2023-08-01T12:27:16;22.10;99.90
27506;DHT22;14939;43.596;1.320;2023-08-01T12:29:42;22.70;99.90
27506;DHT22;14939;43.596;1.320;2023-08-01T12:32:07;23.30;99.90
27506;DHT22;14939;43.596;1.320;2023-08-01T12:34:33;23.40;99.90
27506;DHT22;14939;43.596;1.320;2023-08-01T12:36:59;23.40;99.90
27506;DHT22;14939;43.596;1.320;2023-08-01T12:39:24;22.30;99.90
27506;DHT22;14939;43.596;1.320;2023-08-01T12:41:51;22.00;99.90
27506;DHT22;14939;43.596;1.320;2023-08-01T12:44:18;22.20;99.90
27506;DHT22;14939;43.596;1.320;2023-08-01T12:46:43;22.30;99.90
27506;DHT22;14939;43.596;1.320;2023-08-01T12:49:09;22.60;99.90
27506;DHT22;14939;43.596;1.320;2023-08-01T12:51:34;22.40;99.90
27506;DHT22;14939;43.596;1.320;2023-08-01T12:54:00;21.90;99.90
27506;DHT22;14939;43.596;1.320;2023-08-01T12:56:25;22.60;99.90
27506;DHT22;14939;43.596;1.320;2023-08-01T12:58:51;22.20;99.90
27506;DHT22;14939;43.596;1.320;2023-08-01T13:01:17;22.40;99.90
27506;DHT22;14939;43.596;1.320;2023-08-01T13:03:42;22.20;99.90
27506;DHT22;14939;43.596;1.320;2023-08-01T13:06:10;21.90;99.90
27506;DHT22;14939;43.596;1.320;2023-08-01T13:08:35;22.10;99.90
27506;DHT22;14939;43.596;1.320;2023-08-01T13:11:01;22.30;99.90
27506;DHT22;14939;43.596;1.320;2023-08-01T13:13:28;22.40;99.90
27506;DHT22;14939;43.596;1.320;2023-08-01T13:15:55;22.60;99.90
27506;DHT22;14939;43.596;1.320;2023-08-01T13:18:21;22.70;99.90
27506;DHT22;14939;43.596;1.320;2023-08-01T13:20:46;22.70;99.90
27506;DHT22;14939;43.596;1.320;2023-08-01T13:23:12;23.30;99.90
27506;DHT22;14939;43.596;1.320;2023-08-01T13:25:37;23.80;99.90
27506;DHT22;14939;43.596;1.320;2023-08-01T13:28:03;24.50;99.90
27506;DHT22;14939;43.596;1.320;2023-08-01T13:30:29;24.10;99.90
27506;DHT22;14939;43.596;1.320;2023-08-01T13:32:54;24.50;99.90
27506;DHT22;14939;43.596;1.320;2023-08-01T13:35:20;24.70;99.90
27506;DHT22;14939;43.596;1.320;2023-08-01T13:37:45;24.80;99.90
27506;DHT22;14939;43.596;1.320;2023-08-01T13:40:11;25.00;99.90
27506;DHT22;14939;43.596;1.320;2023-08-01T13:42:39;25.00;99.90
27506;DHT22;14939;43.596;1.320;2023-08-01T13:45:05;25.00;99.90
27506;DHT22;14939;43.596;1.320;2023-08-01T13:47:31;25.00;99.90
27506;DHT22;14939;43.596;1.320;2023-08-01T13:49:56;25.10;99.90
27506;DHT22;14939;43.596;1.320;2023-08-01T13:52:22;25.50;99.90
27506;DHT22;14939;43.596;1.320;2023-08-01T13:54:47;25.60;99.90
27506;DHT22;14939;43.596;1.320;2023-08-01T13:57:13;25.60;97.90
27506;DHT22;14939;43.596;1.320;2023-08-01T13:59:39;25.30;99.90
27506;DHT22;14939;43.596;1.320;2023-08-01T14:02:04;25.40;99.90
27506;DHT22;14939;43.596;1.320;2023-08-01T14:04:30;25.30;99.70
27506;DHT22;14939;43.596;1.320;2023-08-01T14:06:55;25.30;99.70
27506;DHT22;14939;43.596;1.320;2023-08-01T14:09:21;25.30;95.60
27506;DHT22;14939;43.596;1.320;2023-08-01T14:11:46;26.00;89.90
27506;DHT22;14939;43.596;1.320;2023-08-01T14:14:12;26.00;91.00
27506;DHT22;14939;43.596;1.320;2023-08-01T14:16:37;26.10;84.90
27506;DHT22;14939;43.596;1.320;2023-08-01T14:19:03;26.30;78.70
27506;DHT22;14939;43.596;1.320;2023-08-01T14:21:29;26.30;79.00
27506;DHT22;14939;43.596;1.320;2023-08-01T14:23:54;26.60;76.90
27506;DHT22;14939;43.596;1.320;2023-08-01T14:26:20;26.90;73.80
27506;DHT22;14939;43.596;1.320;2023-08-01T14:28:46;26.80;71.20
27506;DHT22;14939;43.596;1.320;2023-08-01T14:31:11;26.70;72.90
27506;DHT22;14939;43.596;1.320;2023-08-01T14:33:37;26.50;75.60
27506;DHT22;14939;43.596;1.320;2023-08-01T14:36:06;26.80;75.20
27506;DHT22;14939;43.596;1.320;2023-08-01T14:38:32;26.50;73.90
27506;DHT22;14939;43.596;1.320;2023-08-01T14:40:58;26.40;74.40
27506;DHT22;14939;43.596;1.320;2023-08-01T14:43:23;26.80;71.80
27506;DHT22;14939;43.596;1.320;2023-08-01T14:45:49;26.70;71.00
27506;DHT22;14939;43.596;1.320;2023-08-01T14:48:14;26.60;71.50
27506;DHT22;14939;43.596;1.320;2023-08-01T14:50:40;26.60;70.60
27506;DHT22;14939;43.596;1.320;2023-08-01T14:53:05;26.40;73.60
27506;DHT22;14939;43.596;1.320;2023-08-01T14:55:33;26.60;73.50
27506;DHT22;14939;43.596;1.320;2023-08-01T14:57:58;27.00;65.10
27506;DHT22;14939;43.596;1.320;2023-08-01T15:00:24;26.80;66.40
27506;DHT22;14939;43.596;1.320;2023-08-01T15:02:50;27.20;64.90
27506;DHT22;14939;43.596;1.320;2023-08-01T15:05:16;29.30;54.40
27506;DHT22;14939;43.596;1.320;2023-08-01T15:07:41;31.10;44.50
27506;DHT22;14939;43.596;1.320;2023-08-01T15:10:07;31.50;38.70
27506;DHT22;14939;43.596;1.320;2023-08-01T15:12:33;31.50;36.60
27506;DHT22;14939;43.596;1.320;2023-08-01T15:14:58;31.60;34.70
27506;DHT22;14939;43.596;1.320;2023-08-01T15:17:24;31.50;34.90
27506;DHT22;14939;43.596;1.320;2023-08-01T15:19:50;32.20;32.10
27506;DHT22;14939;43.596;1.320;2023-08-01T15:22:16;32.10;31.50
27506;DHT22;14939;43.596;1.320;2023-08-01T15:24:42;32.20;29.50
27506;DHT22;14939;43.596;1.320;2023-08-01T15:27:08;31.50;30.20
27506;DHT22;14939;43.596;1.320;2023-08-01T15:29:33;31.90;29.50
27506;DHT22;14939;43.596;1.320;2023-08-01T15:31:59;32.40;28.90
27506;DHT22;14939;43.596;1.320;2023-08-01T15:34:24;32.60;28.00
27506;DHT22;14939;43.596;1.320;2023-08-01T15:36:50;31.90;29.50